sensor_id;sensor_type;location;lat;lon;timestamp;temperature;humidity
7598;DHT22;3840;59.32098800;18.06423600;2022-07-22T00:01:27;21.40;99.90
7598;DHT22;3840;59.32098800;18.06423600;2022-07-22T00:03:52;21.40;99.90
7598;DHT22;3840;59.32098800;18.06423600;2022-07-22T00:06:18;21.40;99.90
7598;DHT22;3840;59.32098800;18.06423600;2022-07-22T00:08:44;21.40;99.90
7598;DHT22;3840;59.32098800;18.06423600;2022-07-22T00:11:09;21.40;99.90
7598;DHT22;3840;59.32098800;18.06423600;2022-07-22T00:13:35;21.40;99.90
7598;DHT22;3840;59.32098800;18.06423600;2022-07-22T00:16:01;21.30;99.90
7598;DHT22;3840;59.32098800;18.06423600;2022-07-22T00:18:27;21.30;99.90
7598;DHT22;3840;59.32098800;18.06423600;2022-07-22T00:20:53;21.30;99.90
7598;DHT22;3840;59.32098800;18.06423600;2022-07-22T00:23:18;21.30;99.90
7598;DHT22;3840;59.32098800;18.06423600;2022-07-22T00:25:44;21.30;99.90
7598;DHT22;3840;59.32098800;18.06423600;2022-07-22T00:28:10;21.30;99.90
7598;DHT22;3840;59.32098800;18.06423600;2022-07-22T00:30:35;21.30;99.90
7598;DHT22;3840;59.32098800;18.06423600;2022-07-22T00:33:01;21.30;99.90
7598;DHT22;3840;59.32098800;18.06423600;2022-07-22T00:35:28;21.30;99.90
7598;DHT22;3840;59.32098800;18.06423600;2022-07-22T00:37:53;21.30;99.90
7598;DHT22;3840;59.32098800;18.06423600;2022-07-22T00:40:19;21.30;99.90
7598;DHT22;3840;59.32098800;18.06423600;2022-07-22T00:42:45;21.30;99.90
7598;DHT22;3840;59.32098800;18.06423600;2022-07-22T00:45:10;21.40;99.90
7598;DHT22;3840;59.32098800;18.06423600;2022-07-22T00:47:37;21.40;99.90
7598;DHT22;3840;59.32098800;18.06423600;2022-07-22T00:50:03;21.50;99.90
7598;DHT22;3840;59.32098800;18.06423600;2022-07-22T00:52:31;21.80;99.90
7598;DHT22;3840;59.32098800;18.06423600;2022-07-22T00:54:58;21.80;99.90
7598;DHT22;3840;59.32098800;18.06423600;2022-07-22T00:57:25;21.80;99.90
7598;DHT22;3840;59.32098800;18.06423600;2022-07-22T00:59:50;21.80;99.90
7598;DHT22;3840;59.32098800;18.06423600;2022-07-22T01:02:16;22.10;99.90
7598;DHT22;3840;59.32098800;18.06423600;2022-07-22T01:04:42;22.20;99.90
7598;DHT22;3840;59.32098800;18.06423600;2022-07-22T01:07:08;22.30;99.90
7598;DHT22;3840;59.32098800;18.06423600;2022-07-22T01:09:34;22.20;99.90
7598;DHT22;3840;59.32098800;18.06423600;2022-07-22T01:12:01;22.20;99.90
7598;DHT22;3840;59.32098800;18.06423600;2022-07-22T01:14:27;22.20;99.90
7598;DHT22;3840;59.32098800;18.06423600;2022-07-22T01:16:52;22.10;99.90
7598;DHT22;3840;59.32098800;18.06423600;2022-07-22T01:19:18;22.00;99.90
7598;DHT22;3840;59.32098800;18.06423600;2022-07-22T01:21:44;21.90;99.90
7598;DHT22;3840;59.32098800;18.06423600;2022-07-22T01:24:10;21.90;99.90
7598;DHT22;3840;59.32098800;18.06423600;2022-07-22T01:26:36;21.90;99.90
7598;DHT22;3840;59.32098800;18.06423600;2022-07-22T01:29:02;21.80;99.90
7598;DHT22;3840;59.32098800;18.06423600;2022-07-22T01:31:28;21.70;99.90
7598;DHT22;3840;59.32098800;18.06423600;2022-07-22T01:33:55;21.70;99.90
7598;DHT22;3840;59.32098800;18.06423600;2022-07-22T01:36:20;21.70;99.90
7598;DHT22;3840;59.32098800;18.06423600;2022-07-22T01:38:46;21.60;99.90
7598;DHT22;3840;59.32098800;18.06423600;2022-07-22T01:41:12;21.70;99.90
7598;DHT22;3840;59.32098800;18.06423600;2022-07-22T01:43:38;21.70;99.90
7598;DHT22;3840;59.32098800;18.06423600;2022-07-22T01:46:04;21.60;99.90
7598;DHT22;3840;59.32098800;18.06423600;2022-07-22T01:48:30;21.60;99.90
7598;DHT22;3840;59.32098800;18.06423600;2022-07-22T01:50:56;21.50;99.90
7598;DHT22;3840;59.32098800;18.06423600;2022-07-22T01:53:22;21.50;99.90
7598;DHT22;3840;59.32098800;18.06423600;2022-07-22T01:55:47;21.50;99.90
7598;DHT22;3840;59.32098800;18.06423600;2022-07-22T01:58:13;21.50;99.90
7598;DHT22;3840;59.32098800;18.06423600;2022-07-22T02:00:39;21.40;99.90
7598;DHT22;3840;59.32098800;18.06423600;2022-07-22T02:03:05;21.40;99.90
7598;DHT22;3840;59.32098800;18.06423600;2022-07-22T02:05:32;21.30;99.90
7598;DHT22;3840;59.32098800;18.06423600;2022-07-22T02:08:05;21.40;99.90
7598;DHT22;3840;59.32098800;18.06423600;2022-07-22T02:10:31;21.30;99.90
7598;DHT22;3840;59.32098800;18.06423600;2022-07-22T02:12:57;21.40;99.90
7598;DHT22;3840;59.32098800;18.06423600;2022-07-22T02:15:24;21.40;99.90
7598;DHT22;3840;59.32098800;18.06423600;2022-07-22T02:17:50;21.40;99.90
7598;DHT22;3840;59.32098800;18.06423600;2022-07-22T02:20:16;21.30;99.90
7598;DHT22;3840;59.32098800;18.06423600;2022-07-22T02:22:41;21.30;99.90
7598;DHT22;3840;59.32098800;18.06423600;2022-07-22T02:25:07;21.30;99.90
7598;DHT22;3840;59.32098800;18.06423600;2022-07-22T02:27:34;21.20;99.90
7598;DHT22;3840;59.32098800;18.06423600;2022-07-22T02:29:59;21.20;99.90
7598;DHT22;3840;59.32098800;18.06423600;2022-07-22T02:32:25;21.20;99.90
7598;DHT22;3840;59.32098800;18.06423600;2022-07-22T02:34:51;21.10;99.90
7598;DHT22;3840;59.32098800;18.06423600;2022-07-22T02:37:16;21.10;99.90
7598;DHT22;3840;59.32098800;18.06423600;2022-07-22T02:39:42;21.10;99.90
7598;DHT22;3840;59.32098800;18.06423600;2022-07-22T02:42:08;21.10;99.90
7598;DHT22;3840;59.32098800;18.06423600;2022-07-22T02:44:34;21.10;99.90
7598;DHT22;3840;59.32098800;18.06423600;2022-07-22T02:46:59;21.10;99.90
7598;DHT22;3840;59.32098800;18.06423600;2022-07-22T02:49:25;21.10;99.90
7598;DHT22;3840;59.32098800;18.06423600;2022-07-22T02:51:51;21.20;99.90
7598;DHT22;3840;59.32098800;18.06423600;2022-07-22T02:54:16;21.20;99.90
7598;DHT22;3840;59.32098800;18.06423600;2022-07-22T02:56:42;21.30;99.90
7598;DHT22;3840;59.32098800;18.06423600;2022-07-22T02:59:08;21.30;99.90
7598;DHT22;3840;59.32098800;18.06423600;2022-07-22T03:01:34;21.30;99.90
7598;DHT22;3840;59.32098800;18.06423600;2022-07-22T03:04:00;21.40;99.90
7598;DHT22;3840;59.32098800;18.06423600;2022-07-22T03:06:25;21.40;99.90
7598;DHT22;3840;59.32098800;18.06423600;2022-07-22T03:08:51;21.50;99.90
7598;DHT22;3840;59.32098800;18.06423600;2022-07-22T03:11:17;21.60;99.90
7598;DHT22;3840;59.32098800;18.06423600;2022-07-22T03:13:42;21.80;99.90
7598;DHT22;3840;59.32098800;18.06423600;2022-07-22T03:16:08;22.10;99.90
7598;DHT22;3840;59.32098800;18.06423600;2022-07-22T03:18:34;22.70;99.90
7598;DHT22;3840;59.32098800;18.06423600;2022-07-22T03:21:00;23.30;99.90
7598;DHT22;3840;59.32098800;18.06423600;2022-07-22T03:23:26;23.70;99.90
7598;DHT22;3840;59.32098800;18.06423600;2022-07-22T03:25:51;23.50;99.90
7598;DHT22;3840;59.32098800;18.06423600;2022-07-22T03:28:17;23.70;99.90
7598;DHT22;3840;59.32098800;18.06423600;2022-07-22T03:30:42;23.60;99.90
7598;DHT22;3840;59.32098800;18.06423600;2022-07-22T03:33:08;23.60;99.90
7598;DHT22;3840;59.32098800;18.06423600;2022-07-22T03:35:34;23.20;99.90
7598;DHT22;3840;59.32098800;18.06423600;2022-07-22T03:37:59;23.20;99.90
7598;DHT22;3840;59.32098800;18.06423600;2022-07-22T03:40:25;23.10;99.90
7598;DHT22;3840;59.32098800;18.06423600;2022-07-22T03:42:51;23.40;99.90
7598;DHT22;3840;59.32098800;18.06423600;2022-07-22T03:45:17;23.60;99.90
7598;DHT22;3840;59.32098800;18.06423600;2022-07-22T03:47:42;23.60;99.90
7598;DHT22;3840;59.32098800;18.06423600;2022-07-22T03:50:08;23.90;99.90
7598;DHT22;3840;59.32098800;18.06423600;2022-07-22T03:52:34;24.30;99.90
7598;DHT22;3840;59.32098800;18.06423600;2022-07-22T03:55:00;23.80;99.90
7598;DHT22;3840;59.32098800;18.06423600;2022-07-22T03:57:26;23.50;99.90
7598;DHT22;3840;59.32098800;18.06423600;2022-07-22T03:59:53;23.70;99.90
7598;DHT22;3840;59.32098800;18.06423600;2022-07-22T04:02:19;24.50;99.90
7598;DHT22;3840;59.32098800;18.06423600;2022-07-22T04:04:45;25.10;99.90
7598;DHT22;3840;59.32098800;18.06423600;2022-07-22T04:07:10;25.30;99.90
7598;DHT22;3840;59.32098800;18.06423600;2022-07-22T04:09:36;25.40;99.90
7598;DHT22;3840;59.32098800;18.06423600;2022-07-22T04:12:02;25.00;99.90
7598;DHT22;3840;59.32098800;18.06423600;2022-07-22T04:14:28;25.10;99.90
7598;DHT22;3840;59.32098800;18.06423600;2022-07-22T04:16:53;25.20;99.90
7598;DHT22;3840;59.32098800;18.06423600;2022-07-22T04:19:19;24.80;99.90
7598;DHT22;3840;59.32098800;18.06423600;2022-07-22T04:21:45;24.70;99.90
7598;DHT22;3840;59.32098800;18.06423600;2022-07-22T04:24:10;25.40;99.90
7598;DHT22;3840;59.32098800;18.06423600;2022-07-22T04:26:36;25.40;99.90
7598;DHT22;3840;59.32098800;18.06423600;2022-07-22T04:29:03;24.80;99.90
7598;DHT22;3840;59.32098800;18.06423600;2022-07-22T04:31:29;24.30;99.90
7598;DHT22;3840;59.32098800;18.06423600;2022-07-22T04:33:55;25.00;99.90
7598;DHT22;3840;59.32098800;18.06423600;2022-07-22T04:36:20;25.10;99.90
7598;DHT22;3840;59.32098800;18.06423600;2022-07-22T04:38:46;24.80;99.90
7598;DHT22;3840;59.32098800;18.06423600;2022-07-22T04:41:12;24.50;99.90
7598;DHT22;3840;59.32098800;18.06423600;2022-07-22T04:43:37;24.30;99.90
7598;DHT22;3840;59.32098800;18.06423600;2022-07-22T04:46:03;23.80;99.90
7598;DHT22;3840;59.32098800;18.06423600;2022-07-22T04:48:29;23.50;99.90
7598;DHT22;3840;59.32098800;18.06423600;2022-07-22T04:50:58;23.40;99.90
7598;DHT22;3840;59.32098800;18.06423600;2022-07-22T04:53:26;23.70;99.90
7598;DHT22;3840;59.32098800;18.06423600;2022-07-22T04:55:51;23.60;99.90
7598;DHT22;3840;59.32098800;18.06423600;2022-07-22T04:58:17;23.20;99.90
7598;DHT22;3840;59.32098800;18.06423600;2022-07-22T05:00:43;22.30;99.90
7598;DHT22;3840;59.32098800;18.06423600;2022-07-22T05:03:08;22.10;99.90
7598;DHT22;3840;59.32098800;18.06423600;2022-07-22T05:05:34;22.00;99.90
7598;DHT22;3840;59.32098800;18.06423600;2022-07-22T05:08:00;22.10;99.90
7598;DHT22;3840;59.32098800;18.06423600;2022-07-22T05:10:26;21.80;99.90
7598;DHT22;3840;59.32098800;18.06423600;2022-07-22T05:12:53;21.70;99.90
7598;DHT22;3840;59.32098800;18.06423600;2022-07-22T05:15:18;21.70;99.90
7598;DHT22;3840;59.32098800;18.06423600;2022-07-22T05:17:44;21.60;99.90
7598;DHT22;3840;59.32098800;18.06423600;2022-07-22T05:20:10;21.70;99.90
7598;DHT22;3840;59.32098800;18.06423600;2022-07-22T05:22:36;21.80;99.90
7598;DHT22;3840;59.32098800;18.06423600;2022-07-22T05:25:02;21.90;99.90
7598;DHT22;3840;59.32098800;18.06423600;2022-07-22T05:27:28;22.10;99.90
7598;DHT22;3840;59.32098800;18.06423600;2022-07-22T05:29:54;22.10;99.90
7598;DHT22;3840;59.32098800;18.06423600;2022-07-22T05:32:19;22.20;99.90
7598;DHT22;3840;59.32098800;18.06423600;2022-07-22T05:34:45;22.20;99.90
7598;DHT22;3840;59.32098800;18.06423600;2022-07-22T05:37:11;22.10;99.90
7598;DHT22;3840;59.32098800;18.06423600;2022-07-22T05:39:36;22.10;99.90
7598;DHT22;3840;59.32098800;18.06423600;2022-07-22T05:42:02;22.20;99.90
7598;DHT22;3840;59.32098800;18.06423600;2022-07-22T05:44:28;22.20;99.90
7598;DHT22;3840;59.32098800;18.06423600;2022-07-22T05:46:54;22.20;99.90
7598;DHT22;3840;59.32098800;18.06423600;2022-07-22T05:49:19;22.40;99.90
7598;DHT22;3840;59.32098800;18.06423600;2022-07-22T05:51:47;22.60;99.90
7598;DHT22;3840;59.32098800;18.06423600;2022-07-22T05:54:12;22.70;99.90
7598;DHT22;3840;59.32098800;18.06423600;2022-07-22T05:56:38;23.00;99.90
7598;DHT22;3840;59.32098800;18.06423600;2022-07-22T05:59:04;23.10;99.90
7598;DHT22;3840;59.32098800;18.06423600;2022-07-22T06:01:30;23.20;99.90
7598;DHT22;3840;59.32098800;18.06423600;2022-07-22T06:03:55;23.30;99.90
7598;DHT22;3840;59.32098800;18.06423600;2022-07-22T06:06:21;23.30;99.90
7598;DHT22;3840;59.32098800;18.06423600;2022-07-22T06:08:47;23.40;99.90
7598;DHT22;3840;59.32098800;18.06423600;2022-07-22T06:11:12;23.40;99.90
7598;DHT22;3840;59.32098800;18.06423600;2022-07-22T06:13:38;23.40;99.90
7598;DHT22;3840;59.32098800;18.06423600;2022-07-22T06:16:04;23.40;99.90
7598;DHT22;3840;59.32098800;18.06423600;2022-07-22T06:18:30;23.30;99.90
7598;DHT22;3840;59.32098800;18.06423600;2022-07-22T06:20:56;23.50;99.90
7598;DHT22;3840;59.32098800;18.06423600;2022-07-22T06:23:23;23.60;99.90
7598;DHT22;3840;59.32098800;18.06423600;2022-07-22T06:25:49;23.70;99.90
7598;DHT22;3840;59.32098800;18.06423600;2022-07-22T06:28:15;23.70;99.90
7598;DHT22;3840;59.32098800;18.06423600;2022-07-22T06:30:41;23.90;99.90
7598;DHT22;3840;59.32098800;18.06423600;2022-07-22T06:33:06;23.90;99.90
7598;DHT22;3840;59.32098800;18.06423600;2022-07-22T06:35:32;24.00;99.90
7598;DHT22;3840;59.32098800;18.06423600;2022-07-22T06:37:58;24.00;99.90
7598;DHT22;3840;59.32098800;18.06423600;2022-07-22T06:40:23;24.10;99.90
7598;DHT22;3840;59.32098800;18.06423600;2022-07-22T06:42:49;24.20;99.90
7598;DHT22;3840;59.32098800;18.06423600;2022-07-22T06:45:15;24.50;99.90
7598;DHT22;3840;59.32098800;18.06423600;2022-07-22T06:47:40;24.60;99.90
7598;DHT22;3840;59.32098800;18.06423600;2022-07-22T06:50:08;24.50;99.90
7598;DHT22;3840;59.32098800;18.06423600;2022-07-22T06:52:38;24.80;99.90
7598;DHT22;3840;59.32098800;18.06423600;2022-07-22T06:55:04;25.10;99.90
7598;DHT22;3840;59.32098800;18.06423600;2022-07-22T06:57:30;25.10;99.90
7598;DHT22;3840;59.32098800;18.06423600;2022-07-22T06:59:56;24.90;99.90
7598;DHT22;3840;59.32098800;18.06423600;2022-07-22T07:02:22;24.90;99.90
7598;DHT22;3840;59.32098800;18.06423600;2022-07-22T07:04:47;24.90;99.90
7598;DHT22;3840;59.32098800;18.06423600;2022-07-22T07:07:13;24.80;99.90
7598;DHT22;3840;59.32098800;18.06423600;2022-07-22T07:09:38;24.70;99.90
7598;DHT22;3840;59.32098800;18.06423600;2022-07-22T07:12:04;24.60;99.90
7598;DHT22;3840;59.32098800;18.06423600;2022-07-22T07:14:30;24.40;99.90
7598;DHT22;3840;59.32098800;18.06423600;2022-07-22T07:16:56;24.50;99.90
7598;DHT22;3840;59.32098800;18.06423600;2022-07-22T07:19:21;24.80;99.90
7598;DHT22;3840;59.32098800;18.06423600;2022-07-22T07:21:47;24.80;99.90
7598;DHT22;3840;59.32098800;18.06423600;2022-07-22T07:24:13;24.90;99.90
7598;DHT22;3840;59.32098800;18.06423600;2022-07-22T07:26:38;24.90;99.90
7598;DHT22;3840;59.32098800;18.06423600;2022-07-22T07:29:04;25.10;99.90
7598;DHT22;3840;59.32098800;18.06423600;2022-07-22T07:31:30;25.00;99.90
7598;DHT22;3840;59.32098800;18.06423600;2022-07-22T07:33:56;24.90;99.90
7598;DHT22;3840;59.32098800;18.06423600;2022-07-22T07:36:22;24.80;99.90
7598;DHT22;3840;59.32098800;18.06423600;2022-07-22T07:38:48;24.80;99.90
7598;DHT22;3840;59.32098800;18.06423600;2022-07-22T07:41:14;25.10;99.90
7598;DHT22;3840;59.32098800;18.06423600;2022-07-22T07:43:40;25.20;99.90
7598;DHT22;3840;59.32098800;18.06423600;2022-07-22T07:46:06;25.20;99.90
7598;DHT22;3840;59.32098800;18.06423600;2022-07-22T07:48:32;25.20;99.90
7598;DHT22;3840;59.32098800;18.06423600;2022-07-22T07:50:58;25.10;99.90
7598;DHT22;3840;59.32098800;18.06423600;2022-07-22T07:53:24;24.80;99.90
7598;DHT22;3840;59.32098800;18.06423600;2022-07-22T07:55:49;24.70;99.90
7598;DHT22;3840;59.32098800;18.06423600;2022-07-22T07:58:15;24.90;99.90
7598;DHT22;3840;59.32098800;18.06423600;2022-07-22T08:00:41;24.80;99.90
7598;DHT22;3840;59.32098800;18.06423600;2022-07-22T08:03:08;25.00;99.90
7598;DHT22;3840;59.32098800;18.06423600;2022-07-22T08:05:34;24.80;99.90
7598;DHT22;3840;59.32098800;18.06423600;2022-07-22T08:08:01;24.80;99.90
7598;DHT22;3840;59.32098800;18.06423600;2022-07-22T08:10:27;24.60;99.90
7598;DHT22;3840;59.32098800;18.06423600;2022-07-22T08:12:53;24.60;99.90
7598;DHT22;3840;59.32098800;18.06423600;2022-07-22T08:15:19;24.40;99.90
7598;DHT22;3840;59.32098800;18.06423600;2022-07-22T08:17:45;24.50;99.90
7598;DHT22;3840;59.32098800;18.06423600;2022-07-22T08:20:11;24.40;99.90
7598;DHT22;3840;59.32098800;18.06423600;2022-07-22T08:22:37;24.20;99.90
7598;DHT22;3840;59.32098800;18.06423600;2022-07-22T08:25:04;24.20;99.90
7598;DHT22;3840;59.32098800;18.06423600;2022-07-22T08:27:29;24.20;99.90
7598;DHT22;3840;59.32098800;18.06423600;2022-07-22T08:29:55;24.20;99.90
7598;DHT22;3840;59.32098800;18.06423600;2022-07-22T08:32:21;24.20;99.90
7598;DHT22;3840;59.32098800;18.06423600;2022-07-22T08:34:47;24.10;99.90
7598;DHT22;3840;59.32098800;18.06423600;2022-07-22T08:37:13;24.10;99.90
7598;DHT22;3840;59.32098800;18.06423600;2022-07-22T08:39:39;24.10;99.90
7598;DHT22;3840;59.32098800;18.06423600;2022-07-22T08:42:05;24.20;99.90
7598;DHT22;3840;59.32098800;18.06423600;2022-07-22T08:44:32;24.20;99.90
7598;DHT22;3840;59.32098800;18.06423600;2022-07-22T08:46:59;24.20;99.90
7598;DHT22;3840;59.32098800;18.06423600;2022-07-22T08:49:24;23.70;99.90
7598;DHT22;3840;59.32098800;18.06423600;2022-07-22T08:51:50;24.00;99.90
7598;DHT22;3840;59.32098800;18.06423600;2022-07-22T08:54:16;23.70;99.90
7598;DHT22;3840;59.32098800;18.06423600;2022-07-22T08:56:44;23.80;99.90
7598;DHT22;3840;59.32098800;18.06423600;2022-07-22T08:59:10;24.10;99.90
7598;DHT22;3840;59.32098800;18.06423600;2022-07-22T09:01:36;24.00;99.90
7598;DHT22;3840;59.32098800;18.06423600;2022-07-22T09:04:03;24.00;99.90
7598;DHT22;3840;59.32098800;18.06423600;2022-07-22T09:06:28;24.10;99.90
7598;DHT22;3840;59.32098800;18.06423600;2022-07-22T09:09:05;24.10;99.90
7598;DHT22;3840;59.32098800;18.06423600;2022-07-22T09:11:32;24.20;99.90
7598;DHT22;3840;59.32098800;18.06423600;2022-07-22T09:14:00;24.10;99.90
7598;DHT22;3840;59.32098800;18.06423600;2022-07-22T09:16:46;24.40;99.90
7598;DHT22;3840;59.32098800;18.06423600;2022-07-22T09:19:13;24.50;99.90
7598;DHT22;3840;59.32098800;18.06423600;2022-07-22T09:21:42;24.40;99.90
7598;DHT22;3840;59.32098800;18.06423600;2022-07-22T09:24:08;23.90;99.90
7598;DHT22;3840;59.32098800;18.06423600;2022-07-22T09:26:35;24.20;99.90
7598;DHT22;3840;59.32098800;18.06423600;2022-07-22T09:29:02;24.40;99.90
7598;DHT22;3840;59.32098800;18.06423600;2022-07-22T09:31:31;24.30;99.90
7598;DHT22;3840;59.32098800;18.06423600;2022-07-22T09:33:58;24.50;99.90
7598;DHT22;3840;59.32098800;18.06423600;2022-07-22T09:36:24;24.60;99.90
7598;DHT22;3840;59.32098800;18.06423600;2022-07-22T09:38:50;24.50;99.90
7598;DHT22;3840;59.32098800;18.06423600;2022-07-22T09:41:16;24.70;99.90
7598;DHT22;3840;59.32098800;18.06423600;2022-07-22T09:43:42;24.40;99.90
7598;DHT22;3840;59.32098800;18.06423600;2022-07-22T09:46:08;24.40;99.90
7598;DHT22;3840;59.32098800;18.06423600;2022-07-22T09:48:36;24.50;99.90
7598;DHT22;3840;59.32098800;18.06423600;2022-07-22T09:51:02;24.50;99.90
7598;DHT22;3840;59.32098800;18.06423600;2022-07-22T09:53:29;24.60;99.90
7598;DHT22;3840;59.32098800;18.06423600;2022-07-22T09:55:57;24.20;99.90
7598;DHT22;3840;59.32098800;18.06423600;2022-07-22T09:58:23;24.10;99.90
7598;DHT22;3840;59.32098800;18.06423600;2022-07-22T10:00:49;23.80;99.90
7598;DHT22;3840;59.32098800;18.06423600;2022-07-22T10:03:28;24.10;99.90
7598;DHT22;3840;59.32098800;18.06423600;2022-07-22T10:05:54;24.00;99.90
7598;DHT22;3840;59.32098800;18.06423600;2022-07-22T10:08:21;24.20;99.90
7598;DHT22;3840;59.32098800;18.06423600;2022-07-22T10:10:49;24.50;99.90
7598;DHT22;3840;59.32098800;18.06423600;2022-07-22T10:13:17;24.30;99.90
7598;DHT22;3840;59.32098800;18.06423600;2022-07-22T10:15:45;24.10;99.90
7598;DHT22;3840;59.32098800;18.06423600;2022-07-22T10:18:16;24.00;99.90
7598;DHT22;3840;59.32098800;18.06423600;2022-07-22T10:20:43;23.80;99.90
7598;DHT22;3840;59.32098800;18.06423600;2022-07-22T10:23:10;23.70;99.90
7598;DHT22;3840;59.32098800;18.06423600;2022-07-22T10:25:56;23.70;99.90
7598;DHT22;3840;59.32098800;18.06423600;2022-07-22T10:28:31;23.70;99.90
7598;DHT22;3840;59.32098800;18.06423600;2022-07-22T10:31:17;23.60;99.90
7598;DHT22;3840;59.32098800;18.06423600;2022-07-22T10:33:44;23.60;99.90
7598;DHT22;3840;59.32098800;18.06423600;2022-07-22T10:36:10;23.50;99.90
7598;DHT22;3840;59.32098800;18.06423600;2022-07-22T10:38:36;23.50;99.90
7598;DHT22;3840;59.32098800;18.06423600;2022-07-22T10:41:06;23.30;99.90
7598;DHT22;3840;59.32098800;18.06423600;2022-07-22T10:46:08;23.00;99.90
7598;DHT22;3840;59.32098800;18.06423600;2022-07-22T10:51:10;22.70;99.90
7598;DHT22;3840;59.32098800;18.06423600;2022-07-22T10:56:28;22.60;99.90
7598;DHT22;3840;59.32098800;18.06423600;2022-07-22T10:59:12;22.60;99.90
7598;DHT22;3840;59.32098800;18.06423600;2022-07-22T11:01:41;22.70;99.90
7598;DHT22;3840;59.32098800;18.06423600;2022-07-22T11:06:40;23.00;99.90
7598;DHT22;3840;59.32098800;18.06423600;2022-07-22T11:09:08;23.30;99.90
7598;DHT22;3840;59.32098800;18.06423600;2022-07-22T11:11:38;23.60;99.90
7598;DHT22;3840;59.32098800;18.06423600;2022-07-22T11:14:26;23.80;99.90
7598;DHT22;3840;59.32098800;18.06423600;2022-07-22T11:16:55;24.10;99.90
7598;DHT22;3840;59.32098800;18.06423600;2022-07-22T11:19:24;23.90;99.90
7598;DHT22;3840;59.32098800;18.06423600;2022-07-22T11:21:59;24.00;99.90
7598;DHT22;3840;59.32098800;18.06423600;2022-07-22T11:24:28;24.10;99.90
7598;DHT22;3840;59.32098800;18.06423600;2022-07-22T11:26:57;24.20;99.90
7598;DHT22;3840;59.32098800;18.06423600;2022-07-22T11:29:27;24.30;99.90
7598;DHT22;3840;59.32098800;18.06423600;2022-07-22T11:31:55;24.20;99.90
7598;DHT22;3840;59.32098800;18.06423600;2022-07-22T11:34:21;24.20;99.90
7598;DHT22;3840;59.32098800;18.06423600;2022-07-22T11:36:48;24.40;99.90
7598;DHT22;3840;59.32098800;18.06423600;2022-07-22T11:39:21;24.30;99.90
7598;DHT22;3840;59.32098800;18.06423600;2022-07-22T11:41:47;24.40;99.90
7598;DHT22;3840;59.32098800;18.06423600;2022-07-22T11:44:21;24.50;99.90
7598;DHT22;3840;59.32098800;18.06423600;2022-07-22T11:46:47;24.40;99.90
7598;DHT22;3840;59.32098800;18.06423600;2022-07-22T11:49:15;24.30;99.90
7598;DHT22;3840;59.32098800;18.06423600;2022-07-22T11:51:41;24.30;99.90
7598;DHT22;3840;59.32098800;18.06423600;2022-07-22T11:54:07;24.20;99.90
7598;DHT22;3840;59.32098800;18.06423600;2022-07-22T11:56:33;24.10;99.90
7598;DHT22;3840;59.32098800;18.06423600;2022-07-22T11:59:00;23.90;99.90
7598;DHT22;3840;59.32098800;18.06423600;2022-07-22T12:01:31;24.10;99.90
7598;DHT22;3840;59.32098800;18.06423600;2022-07-22T12:04:03;24.00;99.90
7598;DHT22;3840;59.32098800;18.06423600;2022-07-22T12:06:31;23.70;99.90
7598;DHT22;3840;59.32098800;18.06423600;2022-07-22T12:09:06;23.90;99.90
7598;DHT22;3840;59.32098800;18.06423600;2022-07-22T12:11:34;23.80;99.90
7598;DHT22;3840;59.32098800;18.06423600;2022-07-22T12:14:20;23.70;99.90
7598;DHT22;3840;59.32098800;18.06423600;2022-07-22T12:17:02;23.60;99.90
7598;DHT22;3840;59.32098800;18.06423600;2022-07-22T12:19:30;23.80;99.90
7598;DHT22;3840;59.32098800;18.06423600;2022-07-22T12:24:41;24.10;99.90
7598;DHT22;3840;59.32098800;18.06423600;2022-07-22T12:27:18;23.80;99.90
7598;DHT22;3840;59.32098800;18.06423600;2022-07-22T12:29:48;23.70;99.90
7598;DHT22;3840;59.32098800;18.06423600;2022-07-22T12:32:16;23.20;99.90
7598;DHT22;3840;59.32098800;18.06423600;2022-07-22T12:40:06;22.50;99.90
7598;DHT22;3840;59.32098800;18.06423600;2022-07-22T12:42:34;22.40;99.90
7598;DHT22;3840;59.32098800;18.06423600;2022-07-22T12:45:08;22.40;99.90
7598;DHT22;3840;59.32098800;18.06423600;2022-07-22T12:58:08;22.10;99.90
7598;DHT22;3840;59.32098800;18.06423600;2022-07-22T13:00:39;22.00;99.90
7598;DHT22;3840;59.32098800;18.06423600;2022-07-22T13:03:06;22.10;99.90
7598;DHT22;3840;59.32098800;18.06423600;2022-07-22T13:05:32;21.90;99.90
7598;DHT22;3840;59.32098800;18.06423600;2022-07-22T13:07:57;21.90;99.90
7598;DHT22;3840;59.32098800;18.06423600;2022-07-22T13:10:24;21.80;99.90
7598;DHT22;3840;59.32098800;18.06423600;2022-07-22T13:12:51;21.70;99.90
7598;DHT22;3840;59.32098800;18.06423600;2022-07-22T13:15:18;21.60;99.90
7598;DHT22;3840;59.32098800;18.06423600;2022-07-22T13:17:43;21.40;99.90
7598;DHT22;3840;59.32098800;18.06423600;2022-07-22T13:20:10;21.30;99.90
7598;DHT22;3840;59.32098800;18.06423600;2022-07-22T13:22:37;21.20;99.90
7598;DHT22;3840;59.32098800;18.06423600;2022-07-22T13:25:03;21.20;99.90
7598;DHT22;3840;59.32098800;18.06423600;2022-07-22T13:27:29;21.10;99.90
7598;DHT22;3840;59.32098800;18.06423600;2022-07-22T13:29:55;21.00;99.90
7598;DHT22;3840;59.32098800;18.06423600;2022-07-22T13:32:21;20.90;99.90
7598;DHT22;3840;59.32098800;18.06423600;2022-07-22T13:34:47;21.00;99.90
7598;DHT22;3840;59.32098800;18.06423600;2022-07-22T13:37:12;21.10;99.90
7598;DHT22;3840;59.32098800;18.06423600;2022-07-22T13:39:38;21.10;99.90
7598;DHT22;3840;59.32098800;18.06423600;2022-07-22T13:42:06;21.10;99.90
7598;DHT22;3840;59.32098800;18.06423600;2022-07-22T13:44:32;21.20;99.90
7598;DHT22;3840;59.32098800;18.06423600;2022-07-22T13:46:58;21.30;99.90
7598;DHT22;3840;59.32098800;18.06423600;2022-07-22T13:49:25;21.40;99.90
7598;DHT22;3840;59.32098800;18.06423600;2022-07-22T13:51:51;21.60;99.90
7598;DHT22;3840;59.32098800;18.06423600;2022-07-22T13:54:18;21.90;99.90
7598;DHT22;3840;59.32098800;18.06423600;2022-07-22T13:56:44;22.10;99.90
7598;DHT22;3840;59.32098800;18.06423600;2022-07-22T13:59:12;22.10;99.90
7598;DHT22;3840;59.32098800;18.06423600;2022-07-22T14:01:38;22.30;99.90